createdAt,value
2019-05-05T00:00:35.750Z,58.20
2019-05-05T00:03:14.893Z,58.30
2019-05-05T00:05:45.447Z,58.60
2019-05-05T00:08:15.247Z,58.80
2019-05-05T00:10:58.173Z,59.50
2019-05-05T00:13:28.811Z,59.20
2019-05-05T00:16:16.131Z,59.30
2019-05-05T00:18:45.538Z,59.60
2019-05-05T00:21:15.138Z,59.80
2019-05-05T00:23:45.106Z,59.80
2019-05-05T00:26:14.895Z,60.00
2019-05-05T00:28:44.832Z,60.00
2019-05-05T00:31:15.011Z,60.10
2019-05-05T00:33:44.884Z,60.40
2019-05-05T00:36:14.558Z,60.50
2019-05-05T00:38:45.450Z,60.70
2019-05-05T00:41:14.861Z,60.60
2019-05-05T00:43:45.115Z,60.70
2019-05-05T00:46:32.231Z,60.80
2019-05-05T00:49:01.126Z,61.10
2019-05-05T00:51:30.021Z,61.20
2019-05-05T00:53:58.809Z,61.40
2019-05-05T00:56:27.713Z,61.90
2019-05-05T00:58:58.072Z,62.10
2019-05-05T01:01:31.232Z,62.20
2019-05-05T01:04:00.946Z,62.20
2019-05-05T01:06:31.579Z,62.50
2019-05-05T01:09:00.581Z,62.70
2019-05-05T01:11:29.743Z,62.70
2019-05-05T01:13:58.676Z,63.10
2019-05-05T01:16:27.771Z,64.00
2019-05-05T01:18:56.771Z,63.40
2019-05-05T01:21:25.766Z,63.50
2019-05-05T01:23:54.901Z,63.70
2019-05-05T01:26:24.855Z,64.00
2019-05-05T01:28:56.167Z,63.90
2019-05-05T01:31:25.253Z,64.10
2019-05-05T01:33:58.830Z,64.30
2019-05-05T01:36:27.832Z,64.20
2019-05-05T01:38:58.259Z,64.80
2019-05-05T01:41:31.661Z,63.90
2019-05-05T01:44:00.557Z,63.90
2019-05-05T01:46:29.756Z,63.60
2019-05-05T01:48:58.615Z,63.50
2019-05-05T01:51:27.649Z,63.30
2019-05-05T01:53:56.545Z,63.20
2019-05-05T01:56:25.744Z,63.20
2019-05-05T01:58:54.863Z,63.20
2019-05-05T02:01:24.675Z,63.00
2019-05-05T02:03:54.861Z,63.10
2019-05-05T02:06:24.800Z,63.10
2019-05-05T02:08:54.776Z,63.40
2019-05-05T02:11:24.732Z,63.30
2019-05-05T02:13:54.576Z,63.40
2019-05-05T02:16:25.342Z,63.40
2019-05-05T02:18:54.560Z,63.70
2019-05-05T02:21:24.738Z,63.60
2019-05-05T02:23:54.780Z,63.50
2019-05-05T02:26:24.512Z,63.20
2019-05-05T02:29:01.025Z,63.20
2019-05-05T02:31:49.770Z,63.30
2019-05-05T02:34:18.872Z,63.30
2019-05-05T02:36:47.871Z,63.50
2019-05-05T02:39:16.657Z,63.60
2019-05-05T02:41:45.692Z,64.50
2019-05-05T02:44:15.597Z,63.90
2019-05-05T02:46:48.359Z,64.40
2019-05-05T02:49:18.071Z,65.00
2019-05-05T02:51:48.506Z,65.40
2019-05-05T02:54:18.496Z,65.30
2019-05-05T02:56:54.086Z,65.40
2019-05-05T02:59:26.800Z,65.30
2019-05-05T03:02:04.142Z,64.60
2019-05-05T03:04:33.627Z,64.60
2019-05-05T03:07:04.791Z,64.10
2019-05-05T03:09:35.821Z,64.40
2019-05-05T03:12:05.604Z,64.30
2019-05-05T03:14:36.513Z,63.90
2019-05-05T03:17:08.283Z,63.80
2019-05-05T03:19:37.151Z,63.60
2019-05-05T03:22:07.326Z,63.70
2019-05-05T03:24:36.564Z,63.80
2019-05-05T03:27:05.571Z,63.80
2019-05-05T03:29:34.365Z,63.10
2019-05-05T03:32:05.636Z,62.90
2019-05-05T03:34:34.414Z,62.90
2019-05-05T03:37:04.247Z,62.80
2019-05-05T03:39:34.110Z,62.80
2019-05-05T03:42:05.526Z,62.50
2019-05-05T03:44:39.293Z,62.10
2019-05-05T03:47:09.182Z,62.80
2019-05-05T03:49:38.555Z,61.70
2019-05-05T03:52:07.797Z,62.10
2019-05-05T03:54:36.815Z,62.40
2019-05-05T03:57:08.354Z,62.40
2019-05-05T03:59:40.337Z,61.70
2019-05-05T04:02:26.019Z,62.50
2019-05-05T04:05:14.459Z,62.20
2019-05-05T04:07:44.028Z,62.60
2019-05-05T04:10:14.028Z,61.60
2019-05-05T04:12:43.548Z,61.60
2019-05-05T04:15:14.212Z,61.90
2019-05-05T04:17:56.951Z,62.20
2019-05-05T04:20:27.783Z,62.60
2019-05-05T04:22:58.236Z,62.60
2019-05-05T04:25:27.310Z,62.60
2019-05-05T04:27:56.309Z,63.20
2019-05-05T04:30:25.205Z,63.40
2019-05-05T04:32:54.605Z,63.40
2019-05-05T04:35:24.634Z,63.90
2019-05-05T04:37:54.262Z,64.30
2019-05-05T04:40:24.173Z,64.30
2019-05-05T04:42:54.726Z,64.20
2019-05-05T04:45:24.054Z,64.80
2019-05-05T04:47:57.799Z,65.90
2019-05-05T04:50:31.198Z,66.70
2019-05-05T04:53:01.567Z,67.40
2019-05-05T04:55:30.831Z,68.00
2019-05-05T04:57:59.723Z,68.50
2019-05-05T05:00:28.615Z,69.10
2019-05-05T05:02:59.152Z,69.80
2019-05-05T05:05:29.585Z,70.50
2019-05-05T05:07:58.355Z,71.10
2019-05-05T05:10:27.278Z,71.80
2019-05-05T05:12:56.157Z,72.40
2019-05-05T05:15:24.957Z,73.00
2019-05-05T05:18:04.230Z,72.10
2019-05-05T05:20:33.979Z,72.60
2019-05-05T05:23:03.653Z,71.90
2019-05-05T05:25:34.491Z,71.70
2019-05-05T05:28:04.140Z,71.40
2019-05-05T05:30:34.747Z,71.40
2019-05-05T05:33:04.456Z,70.70
2019-05-05T05:35:33.638Z,70.90
2019-05-05T05:38:04.405Z,71.80
2019-05-05T05:40:34.780Z,71.60
2019-05-05T05:43:05.171Z,73.20
2019-05-05T05:45:35.633Z,71.80
2019-05-05T05:48:06.063Z,72.00
2019-05-05T05:50:36.699Z,71.20
2019-05-05T05:53:05.490Z,71.90
2019-05-05T05:55:34.381Z,71.90
2019-05-05T05:58:04.799Z,72.00
2019-05-05T06:00:34.504Z,72.00
2019-05-05T06:03:03.891Z,72.30
2019-05-05T06:05:34.451Z,72.40
2019-05-05T06:08:04.732Z,72.40
2019-05-05T06:10:34.033Z,72.70
2019-05-05T06:13:04.148Z,72.40
2019-05-05T06:15:33.891Z,72.00
2019-05-05T06:18:04.635Z,72.50
2019-05-05T06:20:34.402Z,72.10
2019-05-05T06:23:04.075Z,72.40
2019-05-05T06:25:34.272Z,73.30
2019-05-05T06:28:04.208Z,73.90
2019-05-05T06:30:33.757Z,74.40
2019-05-05T06:33:04.720Z,73.90
2019-05-05T06:35:33.791Z,73.40
2019-05-05T06:38:04.709Z,73.80
2019-05-05T06:40:38.359Z,73.60
2019-05-05T06:43:08.773Z,73.20
2019-05-05T06:45:39.438Z,72.90
2019-05-05T06:48:08.399Z,72.60
2019-05-05T06:50:37.268Z,71.80
2019-05-05T06:53:06.084Z,71.40
2019-05-05T06:55:34.866Z,71.60
2019-05-05T06:58:04.612Z,71.10
2019-05-05T07:00:34.726Z,70.60
2019-05-05T07:03:07.364Z,71.30
2019-05-05T07:05:34.220Z,69.60
2019-05-05T07:08:04.465Z,70.80
2019-05-05T07:10:33.905Z,71.60
2019-05-05T07:13:04.803Z,71.00
2019-05-05T07:15:34.281Z,70.60
2019-05-05T07:18:04.961Z,70.40
2019-05-05T07:20:34.733Z,71.60
2019-05-05T07:23:05.465Z,70.50
2019-05-05T07:25:42.716Z,70.20
2019-05-05T07:28:04.619Z,70.10
2019-05-05T07:30:33.693Z,68.90
2019-05-05T07:33:04.509Z,68.60
2019-05-05T07:35:56.915Z,69.00
2019-05-05T07:38:17.301Z,68.50
2019-05-05T07:40:46.092Z,67.30
2019-05-05T07:43:15.090Z,67.30
2019-05-05T07:45:44.573Z,67.00
2019-05-05T07:48:13.923Z,66.50
2019-05-05T07:50:45.013Z,66.60
2019-05-05T07:53:17.511Z,66.60
2019-05-05T07:55:44.172Z,66.70
2019-05-05T07:58:13.897Z,65.90
2019-05-05T08:00:43.622Z,64.20
2019-05-05T08:03:14.385Z,64.10
2019-05-05T08:05:44.220Z,62.30
2019-05-05T08:08:13.973Z,61.30
2019-05-05T08:10:43.766Z,62.30
2019-05-05T08:13:14.152Z,62.70
2019-05-05T08:15:56.810Z,63.30
2019-05-05T08:18:17.107Z,63.20
2019-05-05T08:20:47.538Z,61.70
2019-05-05T08:23:30.170Z,63.70
2019-05-05T08:25:55.983Z,65.60
2019-05-05T08:28:35.591Z,65.60
2019-05-05T08:31:06.046Z,66.30
2019-05-05T08:33:34.920Z,67.60
2019-05-05T08:36:04.582Z,67.80
2019-05-05T08:38:34.769Z,67.60
2019-05-05T08:41:04.537Z,66.90
2019-05-05T08:43:34.731Z,66.80
2019-05-05T08:46:04.915Z,67.40
2019-05-05T08:48:34.227Z,68.40
2019-05-05T08:51:04.911Z,68.70
2019-05-05T08:53:44.033Z,68.60
2019-05-05T08:56:04.321Z,68.50
2019-05-05T08:58:34.379Z,68.50
2019-05-05T09:01:04.394Z,67.60
2019-05-05T09:03:33.814Z,65.80
2019-05-05T09:06:04.728Z,65.90
2019-05-05T09:08:34.707Z,65.00
2019-05-05T09:11:04.730Z,64.70
2019-05-05T09:13:34.053Z,65.10
2019-05-05T09:16:03.740Z,64.60
2019-05-05T09:18:33.946Z,65.10
2019-05-05T09:21:04.410Z,66.10
2019-05-05T09:23:35.010Z,66.20
2019-05-05T09:26:08.441Z,67.20
2019-05-05T09:28:41.948Z,68.00
2019-05-05T09:31:10.936Z,68.80
2019-05-05T09:33:39.828Z,69.10
2019-05-05T09:36:08.625Z,67.50
2019-05-05T09:38:37.470Z,67.80
2019-05-05T09:41:06.246Z,67.90
2019-05-05T09:43:35.204Z,68.50
2019-05-05T09:46:04.307Z,68.40
2019-05-05T09:48:33.674Z,67.30
2019-05-05T09:51:04.375Z,66.90
2019-05-05T09:53:34.482Z,66.90
2019-05-05T09:56:04.184Z,66.40
2019-05-05T09:58:34.786Z,65.60
2019-05-05T10:01:04.990Z,66.00
2019-05-05T10:03:34.118Z,64.60
2019-05-05T10:06:04.913Z,63.10
2019-05-05T10:08:34.135Z,60.40
2019-05-05T10:11:04.108Z,58.60
2019-05-05T10:13:33.595Z,57.40
2019-05-05T10:16:03.931Z,58.00
2019-05-05T10:18:35.832Z,55.90
2019-05-05T10:21:04.593Z,55.20
2019-05-05T10:23:35.326Z,54.80
2019-05-05T10:26:05.869Z,54.10
2019-05-05T10:28:34.758Z,52.30
2019-05-05T10:31:04.587Z,50.20
2019-05-05T10:33:36.462Z,50.10
2019-05-05T10:36:05.539Z,48.20
2019-05-05T10:38:36.250Z,48.10
2019-05-05T10:41:05.062Z,47.50
2019-05-05T10:43:34.314Z,45.90
2019-05-05T10:46:03.972Z,45.40
2019-05-05T10:48:34.017Z,44.30
2019-05-05T10:51:04.181Z,44.40
2019-05-05T10:53:33.320Z,44.90
2019-05-05T10:56:04.270Z,43.60
2019-05-05T10:58:33.575Z,42.70
2019-05-05T11:01:04.272Z,42.50
2019-05-05T11:03:34.292Z,43.20
2019-05-05T11:06:04.525Z,43.20
2019-05-05T11:08:34.930Z,42.90
2019-05-05T11:11:04.304Z,41.50
2019-05-05T11:13:34.443Z,42.00
2019-05-05T11:16:04.033Z,43.10
2019-05-05T11:18:34.494Z,44.00
2019-05-05T11:21:04.153Z,43.60
2019-05-05T11:23:34.625Z,42.90
2019-05-05T11:26:03.778Z,42.30
2019-05-05T11:28:34.223Z,41.90
2019-05-05T11:31:04.436Z,41.20
2019-05-05T11:33:54.197Z,41.90
2019-05-05T11:36:24.952Z,41.50
2019-05-05T11:38:53.878Z,41.60
2019-05-05T11:41:24.255Z,42.20
2019-05-05T11:43:53.504Z,40.90
2019-05-05T11:46:24.526Z,40.90
2019-05-05T11:48:54.362Z,40.80
2019-05-05T11:51:24.959Z,39.20
2019-05-05T11:53:54.183Z,38.40
2019-05-05T11:56:23.277Z,38.30
2019-05-05T11:58:52.171Z,37.90
2019-05-05T12:01:20.960Z,39.10
2019-05-05T12:03:49.963Z,38.80
2019-05-05T12:06:19.057Z,38.90
2019-05-05T12:08:47.956Z,39.90
2019-05-05T12:11:16.846Z,39.40
2019-05-05T12:13:46.764Z,38.30
2019-05-05T12:16:17.200Z,37.10
2019-05-05T12:18:46.195Z,36.90
2019-05-05T12:21:15.090Z,36.80
2019-05-05T12:23:44.420Z,37.40
2019-05-05T12:26:24.410Z,36.90
2019-05-05T12:28:54.874Z,35.80
2019-05-05T12:31:25.325Z,35.70
2019-05-05T12:33:54.779Z,35.10
2019-05-05T12:36:23.909Z,35.40
2019-05-05T12:38:54.571Z,35.90
2019-05-05T12:41:23.907Z,36.10
2019-05-05T12:43:54.856Z,35.20
2019-05-05T12:46:28.085Z,35.70
2019-05-05T12:48:58.723Z,35.50
2019-05-05T12:51:27.513Z,34.80
2019-05-05T12:53:56.261Z,35.50
2019-05-05T12:56:25.043Z,35.10
2019-05-05T12:58:54.543Z,34.90
2019-05-05T13:01:25.133Z,36.10
2019-05-05T13:03:54.323Z,37.70
2019-05-05T13:06:23.994Z,38.70
2019-05-05T13:08:53.339Z,39.30
2019-05-05T13:11:23.819Z,39.30
2019-05-05T13:13:54.561Z,39.00
2019-05-05T13:16:25.117Z,39.50
2019-05-05T13:18:54.172Z,39.60
2019-05-05T13:21:44.188Z,40.50
2019-05-05T13:24:17.832Z,40.80
2019-05-05T13:26:48.255Z,41.10
2019-05-05T13:29:17.157Z,41.70
2019-05-05T13:31:46.059Z,42.30
2019-05-05T13:34:14.844Z,43.00
2019-05-05T13:36:44.249Z,43.60
2019-05-05T13:39:14.484Z,44.20
2019-05-05T13:41:44.847Z,43.60
2019-05-05T13:44:15.508Z,43.80
2019-05-05T13:46:44.541Z,44.40
2019-05-05T13:49:18.345Z,44.40
2019-05-05T13:51:47.345Z,44.60
2019-05-05T13:54:16.343Z,45.40
2019-05-05T13:56:45.232Z,45.50
2019-05-05T13:59:14.292Z,45.40
2019-05-05T14:01:44.853Z,45.80
2019-05-05T14:04:14.983Z,45.70
2019-05-05T14:06:45.120Z,45.50
2019-05-05T14:09:14.271Z,44.80
2019-05-05T14:11:44.541Z,45.20
2019-05-05T14:14:13.880Z,45.40
2019-05-05T14:16:44.668Z,46.00
2019-05-05T14:19:14.587Z,46.10
2019-05-05T14:21:44.611Z,45.90
2019-05-05T14:24:20.782Z,44.90
2019-05-05T14:26:49.576Z,45.70
2019-05-05T14:29:36.557Z,46.40
2019-05-05T14:32:07.013Z,46.60
2019-05-05T14:34:37.420Z,46.90
2019-05-05T14:37:24.826Z,47.10
2019-05-05T14:39:54.544Z,47.70
2019-05-05T14:42:23.782Z,48.60
2019-05-05T14:44:54.399Z,49.20
2019-05-05T14:47:24.522Z,48.50
2019-05-05T14:49:54.047Z,48.50
2019-05-05T14:52:24.681Z,48.60
2019-05-05T14:54:54.297Z,47.90
2019-05-05T14:57:25.093Z,47.90
2019-05-05T14:59:54.071Z,47.40
2019-05-05T15:02:24.412Z,48.10
2019-05-05T15:04:55.190Z,48.80
2019-05-05T15:07:44.333Z,48.90
2019-05-05T15:10:29.241Z,47.90
2019-05-05T15:13:00.000Z,47.70
2019-05-05T15:15:28.865Z,47.10
2019-05-05T15:17:57.935Z,46.90
2019-05-05T15:20:26.931Z,46.80
2019-05-05T15:22:55.822Z,46.60
2019-05-05T15:25:24.720Z,46.70
2019-05-05T15:27:54.209Z,46.40
2019-05-05T15:30:27.113Z,46.20
2019-05-05T15:32:54.180Z,45.60
2019-05-05T15:35:23.193Z,45.30
2019-05-05T15:37:53.977Z,45.30
2019-05-05T15:40:24.648Z,45.40
2019-05-05T15:42:54.487Z,45.70
2019-05-05T15:45:23.559Z,45.90
2019-05-05T15:47:54.057Z,46.00
2019-05-05T15:50:23.284Z,46.10
2019-05-05T15:52:52.074Z,46.20
2019-05-05T15:55:20.798Z,45.80
2019-05-05T15:57:49.667Z,45.70
2019-05-05T16:00:19.012Z,45.90
2019-05-05T16:02:47.754Z,45.80
2019-05-05T16:05:16.575Z,46.10
2019-05-05T16:07:45.374Z,46.60
2019-05-05T16:10:14.653Z,46.20
2019-05-05T16:12:45.034Z,46.50
2019-05-05T16:15:18.955Z,46.60
2019-05-05T16:17:49.515Z,47.30
2019-05-05T16:20:36.504Z,46.50
2019-05-05T16:23:22.406Z,46.80
2019-05-05T16:25:51.305Z,47.00
2019-05-05T16:28:20.303Z,47.40
2019-05-05T16:30:49.230Z,47.90
2019-05-05T16:33:18.090Z,48.10
2019-05-05T16:35:46.857Z,48.20
2019-05-05T16:38:15.879Z,48.10
2019-05-05T16:40:45.491Z,48.60
2019-05-05T16:43:16.734Z,48.70
2019-05-05T16:45:44.919Z,49.00
2019-05-05T16:48:13.818Z,50.00
2019-05-05T16:50:44.148Z,49.80
2019-05-05T16:53:30.945Z,49.50
2019-05-05T16:56:00.046Z,49.70
2019-05-05T16:58:29.041Z,49.50
2019-05-05T17:00:57.932Z,49.60
2019-05-05T17:03:26.831Z,50.20
2019-05-05T17:05:57.969Z,49.90
2019-05-05T17:08:26.118Z,50.10
2019-05-05T17:10:54.948Z,50.50
2019-05-05T17:13:44.121Z,50.60
2019-05-05T17:16:35.218Z,50.90
2019-05-05T17:19:08.705Z,51.20
2019-05-05T17:21:39.340Z,51.20
2019-05-05T17:24:08.229Z,50.90
2019-05-05T17:26:37.123Z,51.00
2019-05-05T17:29:05.922Z,51.10
2019-05-05T17:31:34.813Z,51.70
2019-05-05T17:34:04.168Z,52.00
2019-05-05T17:36:33.320Z,51.90
2019-05-05T17:39:02.109Z,52.00
2019-05-05T17:41:34.185Z,52.10
2019-05-05T17:44:07.474Z,53.00
2019-05-05T17:46:40.960Z,52.50
2019-05-05T17:49:27.063Z,52.70
2019-05-05T17:52:00.642Z,53.30
2019-05-05T17:54:46.503Z,53.40
2019-05-05T17:57:15.542Z,53.60
2019-05-05T17:59:44.540Z,52.90
2019-05-05T18:02:13.442Z,52.90
2019-05-05T18:04:44.381Z,53.10
2019-05-05T18:07:14.903Z,53.20
2019-05-05T18:09:57.764Z,53.20
2019-05-05T18:12:37.183Z,53.50
2019-05-05T18:15:07.785Z,53.20
2019-05-05T18:17:36.755Z,53.20
2019-05-05T18:20:06.741Z,53.50
2019-05-05T18:22:35.601Z,53.60
2019-05-05T18:25:09.914Z,53.70
2019-05-05T18:27:38.655Z,53.90
2019-05-05T18:30:07.694Z,53.80
2019-05-05T18:32:36.521Z,53.90
2019-05-05T18:35:06.856Z,53.90
2019-05-05T18:37:35.776Z,53.40
2019-05-05T18:40:08.468Z,53.90
2019-05-05T18:42:37.363Z,54.00
2019-05-05T18:45:09.408Z,54.40
2019-05-05T18:47:38.221Z,54.80
2019-05-05T18:50:07.723Z,55.50
2019-05-05T18:52:36.541Z,54.90
2019-05-05T18:55:08.051Z,55.20
2019-05-05T18:57:36.831Z,55.60
2019-05-05T19:00:08.915Z,56.20
2019-05-05T19:02:39.572Z,56.90
2019-05-05T19:05:13.395Z,57.40
2019-05-05T19:07:59.163Z,57.70
2019-05-05T19:10:28.098Z,56.50
2019-05-05T19:12:57.042Z,57.40
2019-05-05T19:15:25.991Z,57.10
2019-05-05T19:17:54.758Z,58.10
2019-05-05T19:20:27.897Z,59.80
2019-05-05T19:22:58.397Z,59.90
2019-05-05T19:25:27.167Z,58.70
2019-05-05T19:27:56.013Z,57.20
2019-05-05T19:30:25.656Z,57.40
2019-05-05T19:32:54.611Z,57.80
2019-05-05T19:35:30.267Z,58.20
2019-05-05T19:37:54.104Z,58.20
2019-05-05T19:40:24.350Z,58.30
2019-05-05T19:42:53.840Z,58.00
2019-05-05T19:45:24.073Z,58.70
2019-05-05T19:47:53.168Z,58.50
2019-05-05T19:50:38.825Z,59.50
2019-05-05T19:53:09.275Z,60.20
2019-05-05T19:55:38.019Z,59.90
2019-05-05T19:58:06.955Z,61.00
2019-05-05T20:00:38.472Z,60.10
2019-05-05T20:03:06.203Z,59.70
2019-05-05T20:05:35.026Z,59.40
2019-05-05T20:08:04.152Z,60.50
2019-05-05T20:10:33.037Z,60.80
2019-05-05T20:13:01.928Z,61.00
2019-05-05T20:15:35.378Z,61.00
2019-05-05T20:18:04.654Z,60.80
2019-05-05T20:20:33.730Z,60.80
2019-05-05T20:23:04.178Z,62.20
2019-05-05T20:25:34.038Z,63.00
2019-05-05T20:28:03.857Z,61.20
2019-05-05T20:30:34.266Z,61.90
2019-05-05T20:33:07.985Z,61.80
2019-05-05T20:35:44.751Z,62.00
2019-05-05T20:38:20.920Z,61.40
2019-05-05T20:41:05.978Z,61.50
2019-05-05T20:43:35.173Z,62.20
2019-05-05T20:46:04.542Z,62.90
2019-05-05T20:48:34.596Z,64.00
2019-05-05T20:51:03.597Z,63.70
2019-05-05T20:53:34.277Z,63.30
2019-05-05T20:56:04.319Z,62.80
2019-05-05T20:58:33.770Z,63.30
2019-05-05T21:01:04.520Z,64.30
2019-05-05T21:03:34.650Z,64.50
2019-05-05T21:06:04.588Z,64.90
2019-05-05T21:08:34.747Z,65.30
2019-05-05T21:11:04.330Z,65.60
2019-05-05T21:13:34.184Z,66.10
2019-05-05T21:16:03.292Z,66.50
2019-05-05T21:18:34.529Z,67.30
2019-05-05T21:21:04.579Z,68.30
2019-05-05T21:23:35.405Z,68.60
2019-05-05T21:26:08.840Z,69.00
2019-05-05T21:28:37.695Z,68.90
2019-05-05T21:31:06.687Z,70.10
2019-05-05T21:33:35.585Z,70.40
2019-05-05T21:36:04.592Z,71.50
2019-05-05T21:38:35.384Z,71.70
2019-05-05T21:41:04.372Z,73.20
2019-05-05T21:43:33.623Z,74.00
2019-05-05T21:46:04.295Z,74.60
2019-05-05T21:48:34.052Z,75.70
2019-05-05T21:51:07.774Z,76.10
2019-05-05T21:53:38.210Z,76.60
2019-05-05T21:56:25.314Z,77.50
2019-05-05T21:58:56.792Z,77.60
2019-05-05T22:01:27.667Z,77.00
2019-05-05T22:03:56.503Z,76.20
2019-05-05T22:06:25.601Z,75.30
2019-05-05T22:08:54.601Z,74.30
2019-05-05T22:11:24.242Z,73.50
2019-05-05T22:13:54.032Z,73.00
2019-05-05T22:16:23.428Z,72.90
2019-05-05T22:18:54.003Z,73.40
2019-05-05T22:21:35.676Z,73.40
2019-05-05T22:24:15.965Z,73.30
2019-05-05T22:26:45.820Z,73.60
2019-05-05T22:29:17.074Z,75.00
2019-05-05T22:31:45.551Z,77.00
2019-05-05T22:34:15.778Z,78.20
2019-05-05T22:36:44.966Z,79.30
2019-05-05T22:39:17.005Z,79.90
2019-05-05T22:41:46.321Z,80.80
2019-05-05T22:44:15.246Z,82.10
2019-05-05T22:46:44.140Z,82.70
2019-05-05T22:49:14.710Z,83.50
2019-05-05T22:51:44.697Z,84.60
2019-05-05T22:54:14.996Z,85.10
2019-05-05T22:56:44.794Z,84.70
2019-05-05T22:59:14.211Z,84.90
2019-05-05T23:01:44.308Z,85.00
2019-05-05T23:04:29.940Z,85.20
2019-05-05T23:07:03.679Z,85.20
2019-05-05T23:09:30.894Z,86.30
2019-05-05T23:11:59.714Z,86.00
2019-05-05T23:14:28.670Z,85.90
2019-05-05T23:17:10.070Z,86.20
2019-05-05T23:19:44.483Z,86.10
2019-05-05T23:22:34.846Z,86.30
2019-05-05T23:25:14.440Z,85.80
2019-05-05T23:27:49.548Z,85.20
2019-05-05T23:30:23.534Z,85.30
2019-05-05T23:32:51.628Z,85.20
2019-05-05T23:35:20.532Z,85.60
2019-05-05T23:37:49.428Z,85.90
2019-05-05T23:40:24.721Z,86.70
2019-05-05T23:42:54.315Z,87.50
2019-05-05T23:45:24.758Z,88.60
2019-05-05T23:47:54.648Z,88.90
2019-05-05T23:50:24.551Z,89.90
2019-05-05T23:52:54.417Z,90.40
2019-05-05T23:55:24.071Z,90.60
2019-05-05T23:57:54.751Z,90.60
